sensor_id;sensor_type;location;lat;lon;timestamp;temperature;humidity
5834;DHT22;2943;48.012;10.968;2023-07-28T00:01:51;16.40;99.90
5834;DHT22;2943;48.012;10.968;2023-07-28T00:04:19;16.40;99.90
5834;DHT22;2943;48.012;10.968;2023-07-28T00:06:46;16.40;99.90
5834;DHT22;2943;48.012;10.968;2023-07-28T00:09:13;16.40;99.90
5834;DHT22;2943;48.012;10.968;2023-07-28T00:11:39;16.30;99.90
5834;DHT22;2943;48.012;10.968;2023-07-28T00:14:06;16.30;99.90
5834;DHT22;2943;48.012;10.968;2023-07-28T00:16:32;16.30;99.90
5834;DHT22;2943;48.012;10.968;2023-07-28T00:18:59;16.30;99.90
5834;DHT22;2943;48.012;10.968;2023-07-28T00:21:27;16.30;99.90
5834;DHT22;2943;48.012;10.968;2023-07-28T00:23:54;16.20;99.90
5834;DHT22;2943;48.012;10.968;2023-07-28T00:26:20;16.20;99.90
5834;DHT22;2943;48.012;10.968;2023-07-28T00:28:47;16.20;99.90
5834;DHT22;2943;48.012;10.968;2023-07-28T00:31:13;16.20;99.90
5834;DHT22;2943;48.012;10.968;2023-07-28T00:33:40;16.20;99.90
5834;DHT22;2943;48.012;10.968;2023-07-28T00:36:07;16.20;99.90
5834;DHT22;2943;48.012;10.968;2023-07-28T00:38:35;16.10;99.90
5834;DHT22;2943;48.012;10.968;2023-07-28T00:41:01;16.10;99.90
5834;DHT22;2943;48.012;10.968;2023-07-28T00:43:29;16.10;99.90
5834;DHT22;2943;48.012;10.968;2023-07-28T00:45:55;16.00;99.90
5834;DHT22;2943;48.012;10.968;2023-07-28T00:48:22;16.00;99.90
5834;DHT22;2943;48.012;10.968;2023-07-28T00:50:50;16.00;99.90
5834;DHT22;2943;48.012;10.968;2023-07-28T00:53:19;16.00;99.90
5834;DHT22;2943;48.012;10.968;2023-07-28T00:55:47;15.90;99.90
5834;DHT22;2943;48.012;10.968;2023-07-28T00:58:14;15.90;99.90
5834;DHT22;2943;48.012;10.968;2023-07-28T01:00:40;15.90;99.90
5834;DHT22;2943;48.012;10.968;2023-07-28T01:03:07;15.90;99.90
5834;DHT22;2943;48.012;10.968;2023-07-28T01:05:37;15.80;99.90
5834;DHT22;2943;48.012;10.968;2023-07-28T01:08:06;15.80;99.90
5834;DHT22;2943;48.012;10.968;2023-07-28T01:10:33;15.80;99.90
5834;DHT22;2943;48.012;10.968;2023-07-28T01:13:01;15.90;99.90
5834;DHT22;2943;48.012;10.968;2023-07-28T01:15:28;15.90;99.90
5834;DHT22;2943;48.012;10.968;2023-07-28T01:17:54;15.90;99.90
5834;DHT22;2943;48.012;10.968;2023-07-28T01:20:21;15.90;99.90
5834;DHT22;2943;48.012;10.968;2023-07-28T01:22:53;15.90;99.90
5834;DHT22;2943;48.012;10.968;2023-07-28T01:25:28;15.90;99.90
5834;DHT22;2943;48.012;10.968;2023-07-28T01:27:57;15.90;99.90
5834;DHT22;2943;48.012;10.968;2023-07-28T01:30:25;15.90;99.90
5834;DHT22;2943;48.012;10.968;2023-07-28T01:32:53;15.90;99.90
5834;DHT22;2943;48.012;10.968;2023-07-28T01:35:20;15.90;99.90
5834;DHT22;2943;48.012;10.968;2023-07-28T01:37:46;15.90;99.90
5834;DHT22;2943;48.012;10.968;2023-07-28T01:40:16;15.90;99.90
5834;DHT22;2943;48.012;10.968;2023-07-28T01:42:42;15.90;99.90
5834;DHT22;2943;48.012;10.968;2023-07-28T01:45:10;15.90;99.90
5834;DHT22;2943;48.012;10.968;2023-07-28T01:47:37;15.90;99.90
5834;DHT22;2943;48.012;10.968;2023-07-28T01:50:04;15.80;99.90
5834;DHT22;2943;48.012;10.968;2023-07-28T01:52:31;15.80;99.90
5834;DHT22;2943;48.012;10.968;2023-07-28T01:54:57;15.80;99.90
5834;DHT22;2943;48.012;10.968;2023-07-28T01:57:24;15.80;99.90
5834;DHT22;2943;48.012;10.968;2023-07-28T01:59:52;15.80;99.90
5834;DHT22;2943;48.012;10.968;2023-07-28T02:02:20;15.80;99.90
5834;DHT22;2943;48.012;10.968;2023-07-28T02:04:47;15.80;99.90
5834;DHT22;2943;48.012;10.968;2023-07-28T02:07:13;15.80;99.90
5834;DHT22;2943;48.012;10.968;2023-07-28T02:09:39;15.70;99.90
5834;DHT22;2943;48.012;10.968;2023-07-28T02:12:06;15.70;99.90
5834;DHT22;2943;48.012;10.968;2023-07-28T02:14:32;15.70;99.90
5834;DHT22;2943;48.012;10.968;2023-07-28T02:16:59;15.70;99.90
5834;DHT22;2943;48.012;10.968;2023-07-28T02:19:27;15.70;99.90
5834;DHT22;2943;48.012;10.968;2023-07-28T02:21:54;15.70;99.90
5834;DHT22;2943;48.012;10.968;2023-07-28T02:24:20;15.70;99.90
5834;DHT22;2943;48.012;10.968;2023-07-28T02:26:47;15.70;99.90
5834;DHT22;2943;48.012;10.968;2023-07-28T02:29:13;15.70;99.90
5834;DHT22;2943;48.012;10.968;2023-07-28T02:31:40;15.70;99.90
5834;DHT22;2943;48.012;10.968;2023-07-28T02:34:07;15.70;99.90
5834;DHT22;2943;48.012;10.968;2023-07-28T02:36:34;15.70;99.90
5834;DHT22;2943;48.012;10.968;2023-07-28T02:39:01;15.70;99.90
5834;DHT22;2943;48.012;10.968;2023-07-28T02:41:28;15.70;99.90
5834;DHT22;2943;48.012;10.968;2023-07-28T02:43:55;15.70;99.90
5834;DHT22;2943;48.012;10.968;2023-07-28T02:46:21;15.70;99.90
5834;DHT22;2943;48.012;10.968;2023-07-28T02:48:48;15.70;99.90
5834;DHT22;2943;48.012;10.968;2023-07-28T02:51:14;15.70;99.90
5834;DHT22;2943;48.012;10.968;2023-07-28T02:53:42;15.70;99.90
5834;DHT22;2943;48.012;10.968;2023-07-28T02:56:09;15.70;99.90
5834;DHT22;2943;48.012;10.968;2023-07-28T02:58:35;15.70;99.90
5834;DHT22;2943;48.012;10.968;2023-07-28T03:01:02;15.70;99.90
5834;DHT22;2943;48.012;10.968;2023-07-28T03:03:29;15.70;99.90
5834;DHT22;2943;48.012;10.968;2023-07-28T03:05:56;15.70;99.90
5834;DHT22;2943;48.012;10.968;2023-07-28T03:08:22;15.70;99.90
5834;DHT22;2943;48.012;10.968;2023-07-28T03:10:50;15.70;99.90
5834;DHT22;2943;48.012;10.968;2023-07-28T03:13:22;15.60;99.90
5834;DHT22;2943;48.012;10.968;2023-07-28T03:15:48;15.60;99.90
5834;DHT22;2943;48.012;10.968;2023-07-28T03:18:15;15.50;99.90
5834;DHT22;2943;48.012;10.968;2023-07-28T03:20:41;15.50;99.90
5834;DHT22;2943;48.012;10.968;2023-07-28T03:23:08;15.50;99.90
5834;DHT22;2943;48.012;10.968;2023-07-28T03:25:35;15.40;99.90
5834;DHT22;2943;48.012;10.968;2023-07-28T03:28:03;15.40;99.90
5834;DHT22;2943;48.012;10.968;2023-07-28T03:30:29;15.20;99.90
5834;DHT22;2943;48.012;10.968;2023-07-28T03:32:56;15.30;99.90
5834;DHT22;2943;48.012;10.968;2023-07-28T03:35:23;15.30;99.90
5834;DHT22;2943;48.012;10.968;2023-07-28T03:37:49;15.30;99.90
5834;DHT22;2943;48.012;10.968;2023-07-28T03:40:16;15.30;99.90
5834;DHT22;2943;48.012;10.968;2023-07-28T03:42:42;15.30;99.90
5834;DHT22;2943;48.012;10.968;2023-07-28T03:45:10;15.30;99.90
5834;DHT22;2943;48.012;10.968;2023-07-28T03:47:37;15.30;99.90
5834;DHT22;2943;48.012;10.968;2023-07-28T03:50:05;15.30;99.90
5834;DHT22;2943;48.012;10.968;2023-07-28T03:52:32;15.30;99.90
5834;DHT22;2943;48.012;10.968;2023-07-28T03:54:58;15.30;99.90
5834;DHT22;2943;48.012;10.968;2023-07-28T03:57:25;15.30;99.90
5834;DHT22;2943;48.012;10.968;2023-07-28T03:59:51;15.30;99.90
5834;DHT22;2943;48.012;10.968;2023-07-28T04:02:19;15.30;99.90
5834;DHT22;2943;48.012;10.968;2023-07-28T04:04:46;15.30;99.90
5834;DHT22;2943;48.012;10.968;2023-07-28T04:07:13;15.30;99.90
5834;DHT22;2943;48.012;10.968;2023-07-28T04:09:39;15.20;99.90
5834;DHT22;2943;48.012;10.968;2023-07-28T04:12:06;15.20;99.90
5834;DHT22;2943;48.012;10.968;2023-07-28T04:14:33;15.20;99.90
5834;DHT22;2943;48.012;10.968;2023-07-28T04:16:59;15.30;99.90
5834;DHT22;2943;48.012;10.968;2023-07-28T04:19:27;15.30;99.90
5834;DHT22;2943;48.012;10.968;2023-07-28T04:21:55;15.30;99.90
5834;DHT22;2943;48.012;10.968;2023-07-28T04:24:21;15.30;99.90
5834;DHT22;2943;48.012;10.968;2023-07-28T04:26:48;15.40;99.90
5834;DHT22;2943;48.012;10.968;2023-07-28T04:29:15;15.40;99.90
5834;DHT22;2943;48.012;10.968;2023-07-28T04:31:41;15.40;99.90
5834;DHT22;2943;48.012;10.968;2023-07-28T04:34:08;15.50;99.90
5834;DHT22;2943;48.012;10.968;2023-07-28T04:36:36;15.50;99.90
5834;DHT22;2943;48.012;10.968;2023-07-28T04:39:03;15.60;99.90
5834;DHT22;2943;48.012;10.968;2023-07-28T04:41:29;15.60;99.90
5834;DHT22;2943;48.012;10.968;2023-07-28T04:43:56;15.70;99.90
5834;DHT22;2943;48.012;10.968;2023-07-28T04:46:23;15.70;99.90
5834;DHT22;2943;48.012;10.968;2023-07-28T04:48:49;15.80;99.90
5834;DHT22;2943;48.012;10.968;2023-07-28T04:51:16;15.80;99.90
5834;DHT22;2943;48.012;10.968;2023-07-28T04:53:44;15.90;99.90
5834;DHT22;2943;48.012;10.968;2023-07-28T04:56:10;15.90;99.90
5834;DHT22;2943;48.012;10.968;2023-07-28T04:58:37;15.90;99.90
5834;DHT22;2943;48.012;10.968;2023-07-28T05:01:03;16.00;99.90
5834;DHT22;2943;48.012;10.968;2023-07-28T05:03:30;16.00;99.90
5834;DHT22;2943;48.012;10.968;2023-07-28T05:05:57;16.00;99.90
5834;DHT22;2943;48.012;10.968;2023-07-28T05:08:24;16.10;99.90
5834;DHT22;2943;48.012;10.968;2023-07-28T05:10:51;16.10;99.90
5834;DHT22;2943;48.012;10.968;2023-07-28T05:13:18;16.10;99.90
5834;DHT22;2943;48.012;10.968;2023-07-28T05:15:45;16.20;99.90
5834;DHT22;2943;48.012;10.968;2023-07-28T05:18:11;16.20;99.90
5834;DHT22;2943;48.012;10.968;2023-07-28T05:20:38;16.30;99.90
5834;DHT22;2943;48.012;10.968;2023-07-28T05:23:05;16.30;99.90
5834;DHT22;2943;48.012;10.968;2023-07-28T05:25:31;16.30;99.90
5834;DHT22;2943;48.012;10.968;2023-07-28T05:27:59;16.40;99.90
5834;DHT22;2943;48.012;10.968;2023-07-28T05:30:26;16.40;99.90
5834;DHT22;2943;48.012;10.968;2023-07-28T05:32:53;16.40;99.90
5834;DHT22;2943;48.012;10.968;2023-07-28T05:35:20;16.40;99.90
5834;DHT22;2943;48.012;10.968;2023-07-28T05:37:47;16.50;99.90
5834;DHT22;2943;48.012;10.968;2023-07-28T05:40:13;16.50;99.90
5834;DHT22;2943;48.012;10.968;2023-07-28T05:42:40;16.60;99.90
5834;DHT22;2943;48.012;10.968;2023-07-28T05:45:09;16.60;99.90
5834;DHT22;2943;48.012;10.968;2023-07-28T05:47:35;16.60;99.90
5834;DHT22;2943;48.012;10.968;2023-07-28T05:50:02;16.70;99.90
5834;DHT22;2943;48.012;10.968;2023-07-28T05:52:28;16.70;99.90
5834;DHT22;2943;48.012;10.968;2023-07-28T05:54:56;16.80;99.90
5834;DHT22;2943;48.012;10.968;2023-07-28T05:57:23;16.90;99.90
5834;DHT22;2943;48.012;10.968;2023-07-28T05:59:50;17.00;99.90
5834;DHT22;2943;48.012;10.968;2023-07-28T06:02:18;17.00;99.90
5834;DHT22;2943;48.012;10.968;2023-07-28T06:04:45;17.10;99.90
5834;DHT22;2943;48.012;10.968;2023-07-28T06:07:11;17.10;99.90
5834;DHT22;2943;48.012;10.968;2023-07-28T06:09:38;17.20;99.90
5834;DHT22;2943;48.012;10.968;2023-07-28T06:12:05;17.30;99.90
5834;DHT22;2943;48.012;10.968;2023-07-28T06:14:31;17.30;99.90
5834;DHT22;2943;48.012;10.968;2023-07-28T06:16:58;17.40;99.90
5834;DHT22;2943;48.012;10.968;2023-07-28T06:19:26;17.50;99.90
5834;DHT22;2943;48.012;10.968;2023-07-28T06:21:53;17.50;99.90
5834;DHT22;2943;48.012;10.968;2023-07-28T06:24:20;17.60;99.90
5834;DHT22;2943;48.012;10.968;2023-07-28T06:26:46;17.70;99.90
5834;DHT22;2943;48.012;10.968;2023-07-28T06:29:13;17.70;99.90
5834;DHT22;2943;48.012;10.968;2023-07-28T06:31:39;17.80;99.90
5834;DHT22;2943;48.012;10.968;2023-07-28T06:34:06;17.90;99.90
5834;DHT22;2943;48.012;10.968;2023-07-28T06:36:34;17.90;99.90
5834;DHT22;2943;48.012;10.968;2023-07-28T06:39:01;18.00;99.90
5834;DHT22;2943;48.012;10.968;2023-07-28T06:41:27;18.20;99.90
5834;DHT22;2943;48.012;10.968;2023-07-28T06:43:54;18.30;99.90
5834;DHT22;2943;48.012;10.968;2023-07-28T06:46:20;18.40;99.90
5834;DHT22;2943;48.012;10.968;2023-07-28T06:48:47;18.40;99.90
5834;DHT22;2943;48.012;10.968;2023-07-28T06:51:14;18.50;99.90
5834;DHT22;2943;48.012;10.968;2023-07-28T06:53:42;18.60;99.90
5834;DHT22;2943;48.012;10.968;2023-07-28T06:56:08;18.60;99.90
5834;DHT22;2943;48.012;10.968;2023-07-28T06:58:35;18.70;99.90
5834;DHT22;2943;48.012;10.968;2023-07-28T07:01:01;18.70;99.90
5834;DHT22;2943;48.012;10.968;2023-07-28T07:03:28;18.70;99.90
5834;DHT22;2943;48.012;10.968;2023-07-28T07:05:55;18.80;99.90
5834;DHT22;2943;48.012;10.968;2023-07-28T07:08:21;18.80;99.90
5834;DHT22;2943;48.012;10.968;2023-07-28T07:10:49;18.90;99.90
5834;DHT22;2943;48.012;10.968;2023-07-28T07:13:16;18.90;99.90
5834;DHT22;2943;48.012;10.968;2023-07-28T07:15:43;19.00;99.90
5834;DHT22;2943;48.012;10.968;2023-07-28T07:18:09;19.00;99.90
5834;DHT22;2943;48.012;10.968;2023-07-28T07:20:36;19.10;99.90
5834;DHT22;2943;48.012;10.968;2023-07-28T07:23:03;19.30;99.90
5834;DHT22;2943;48.012;10.968;2023-07-28T07:25:30;19.50;99.90
5834;DHT22;2943;48.012;10.968;2023-07-28T07:27:58;19.70;99.90
5834;DHT22;2943;48.012;10.968;2023-07-28T07:30:24;19.80;99.90
5834;DHT22;2943;48.012;10.968;2023-07-28T07:32:51;19.90;99.90
5834;DHT22;2943;48.012;10.968;2023-07-28T07:35:18;20.00;99.90
5834;DHT22;2943;48.012;10.968;2023-07-28T07:37:44;20.10;99.90
5834;DHT22;2943;48.012;10.968;2023-07-28T07:40:11;20.20;99.90
5834;DHT22;2943;48.012;10.968;2023-07-28T07:42:40;20.30;99.90
5834;DHT22;2943;48.012;10.968;2023-07-28T07:45:10;20.40;99.90
5834;DHT22;2943;48.012;10.968;2023-07-28T07:47:36;20.50;99.90
5834;DHT22;2943;48.012;10.968;2023-07-28T07:50:03;20.60;99.90
5834;DHT22;2943;48.012;10.968;2023-07-28T07:52:30;20.60;99.90
5834;DHT22;2943;48.012;10.968;2023-07-28T07:54:57;20.60;99.90
5834;DHT22;2943;48.012;10.968;2023-07-28T07:57:23;20.60;99.90
5834;DHT22;2943;48.012;10.968;2023-07-28T07:59:50;20.70;99.90
5834;DHT22;2943;48.012;10.968;2023-07-28T08:02:18;20.70;99.90
5834;DHT22;2943;48.012;10.968;2023-07-28T08:04:44;20.70;99.90
5834;DHT22;2943;48.012;10.968;2023-07-28T08:07:11;20.80;99.90
5834;DHT22;2943;48.012;10.968;2023-07-28T08:09:37;20.90;99.90
5834;DHT22;2943;48.012;10.968;2023-07-28T08:12:04;20.90;99.90
5834;DHT22;2943;48.012;10.968;2023-07-28T08:14:31;21.10;99.90
5834;DHT22;2943;48.012;10.968;2023-07-28T08:16:58;21.20;99.90
5834;DHT22;2943;48.012;10.968;2023-07-28T08:19:26;21.40;99.90
5834;DHT22;2943;48.012;10.968;2023-07-28T08:21:52;21.50;99.90
5834;DHT22;2943;48.012;10.968;2023-07-28T08:24:19;21.70;99.90
5834;DHT22;2943;48.012;10.968;2023-07-28T08:26:45;21.80;99.90
5834;DHT22;2943;48.012;10.968;2023-07-28T08:29:12;21.80;99.90
5834;DHT22;2943;48.012;10.968;2023-07-28T08:31:39;21.90;99.90
5834;DHT22;2943;48.012;10.968;2023-07-28T08:34:05;21.90;99.90
5834;DHT22;2943;48.012;10.968;2023-07-28T08:36:34;21.80;99.90
5834;DHT22;2943;48.012;10.968;2023-07-28T08:39:01;21.80;99.90
5834;DHT22;2943;48.012;10.968;2023-07-28T08:41:28;21.80;99.90
5834;DHT22;2943;48.012;10.968;2023-07-28T08:43:55;21.80;99.90
5834;DHT22;2943;48.012;10.968;2023-07-28T08:46:22;21.90;99.90
5834;DHT22;2943;48.012;10.968;2023-07-28T08:48:49;22.00;99.90
5834;DHT22;2943;48.012;10.968;2023-07-28T08:51:15;22.20;99.90
5834;DHT22;2943;48.012;10.968;2023-07-28T08:53:43;22.30;99.90
5834;DHT22;2943;48.012;10.968;2023-07-28T08:56:10;22.40;99.90
5834;DHT22;2943;48.012;10.968;2023-07-28T08:58:37;22.50;99.90
5834;DHT22;2943;48.012;10.968;2023-07-28T09:01:04;22.50;99.90
5834;DHT22;2943;48.012;10.968;2023-07-28T09:03:30;22.50;99.90
5834;DHT22;2943;48.012;10.968;2023-07-28T09:05:59;22.50;99.90
5834;DHT22;2943;48.012;10.968;2023-07-28T09:08:27;22.50;99.90
5834;DHT22;2943;48.012;10.968;2023-07-28T09:10:55;22.50;99.90
5834;DHT22;2943;48.012;10.968;2023-07-28T09:13:22;22.50;99.90
5834;DHT22;2943;48.012;10.968;2023-07-28T09:15:49;22.60;99.90
5834;DHT22;2943;48.012;10.968;2023-07-28T09:18:16;22.60;99.90
5834;DHT22;2943;48.012;10.968;2023-07-28T09:20:43;22.60;99.90
5834;DHT22;2943;48.012;10.968;2023-07-28T09:23:10;22.60;99.90
5834;DHT22;2943;48.012;10.968;2023-07-28T09:25:37;22.60;99.90
5834;DHT22;2943;48.012;10.968;2023-07-28T09:28:05;22.60;99.90
5834;DHT22;2943;48.012;10.968;2023-07-28T09:30:45;22.60;99.90
5834;DHT22;2943;48.012;10.968;2023-07-28T09:33:11;22.50;99.90
5834;DHT22;2943;48.012;10.968;2023-07-28T09:35:46;22.50;99.90
5834;DHT22;2943;48.012;10.968;2023-07-28T09:38:13;22.60;99.90
5834;DHT22;2943;48.012;10.968;2023-07-28T09:40:40;22.70;99.90
5834;DHT22;2943;48.012;10.968;2023-07-28T09:43:08;22.70;99.90
5834;DHT22;2943;48.012;10.968;2023-07-28T09:45:35;22.70;99.90
5834;DHT22;2943;48.012;10.968;2023-07-28T09:48:02;22.70;99.90
5834;DHT22;2943;48.012;10.968;2023-07-28T09:50:32;22.70;99.90
5834;DHT22;2943;48.012;10.968;2023-07-28T09:53:01;22.70;99.90
5834;DHT22;2943;48.012;10.968;2023-07-28T09:55:28;22.70;99.90
5834;DHT22;2943;48.012;10.968;2023-07-28T09:57:56;22.60;99.90
5834;DHT22;2943;48.012;10.968;2023-07-28T10:00:25;22.60;99.90
5834;DHT22;2943;48.012;10.968;2023-07-28T10:02:53;22.60;99.90
5834;DHT22;2943;48.012;10.968;2023-07-28T10:05:19;22.50;99.90
5834;DHT22;2943;48.012;10.968;2023-07-28T10:07:48;22.50;99.90
5834;DHT22;2943;48.012;10.968;2023-07-28T10:10:15;22.40;99.90
5834;DHT22;2943;48.012;10.968;2023-07-28T10:12:43;22.30;99.90
5834;DHT22;2943;48.012;10.968;2023-07-28T10:15:12;22.30;99.90
5834;DHT22;2943;48.012;10.968;2023-07-28T10:17:44;22.30;99.90
5834;DHT22;2943;48.012;10.968;2023-07-28T10:20:28;22.30;99.90
5834;DHT22;2943;48.012;10.968;2023-07-28T10:23:01;22.20;99.90
5834;DHT22;2943;48.012;10.968;2023-07-28T10:25:28;22.20;99.90
5834;DHT22;2943;48.012;10.968;2023-07-28T10:27:58;22.20;99.90
5834;DHT22;2943;48.012;10.968;2023-07-28T10:30:24;22.20;99.90
5834;DHT22;2943;48.012;10.968;2023-07-28T10:32:52;22.30;99.90
5834;DHT22;2943;48.012;10.968;2023-07-28T10:35:22;22.20;99.90
5834;DHT22;2943;48.012;10.968;2023-07-28T10:37:49;22.30;99.90
5834;DHT22;2943;48.012;10.968;2023-07-28T10:40:23;22.40;99.90
5834;DHT22;2943;48.012;10.968;2023-07-28T10:42:50;22.40;99.90
5834;DHT22;2943;48.012;10.968;2023-07-28T10:45:17;22.60;99.90
5834;DHT22;2943;48.012;10.968;2023-07-28T10:47:44;22.70;99.90
5834;DHT22;2943;48.012;10.968;2023-07-28T10:50:12;22.80;99.90
5834;DHT22;2943;48.012;10.968;2023-07-28T10:52:39;23.00;99.90
5834;DHT22;2943;48.012;10.968;2023-07-28T10:55:11;23.10;99.90
5834;DHT22;2943;48.012;10.968;2023-07-28T10:57:37;23.20;99.90
5834;DHT22;2943;48.012;10.968;2023-07-28T11:00:05;23.10;99.90
5834;DHT22;2943;48.012;10.968;2023-07-28T11:02:33;23.20;99.90
5834;DHT22;2943;48.012;10.968;2023-07-28T11:04:59;23.30;99.90
5834;DHT22;2943;48.012;10.968;2023-07-28T11:07:33;23.40;99.90
5834;DHT22;2943;48.012;10.968;2023-07-28T11:09:59;23.50;99.90
5834;DHT22;2943;48.012;10.968;2023-07-28T11:12:27;23.50;99.90
5834;DHT22;2943;48.012;10.968;2023-07-28T11:14:53;23.60;99.90
5834;DHT22;2943;48.012;10.968;2023-07-28T11:17:20;23.70;99.90
5834;DHT22;2943;48.012;10.968;2023-07-28T11:19:47;23.80;99.90
5834;DHT22;2943;48.012;10.968;2023-07-28T11:22:16;23.80;99.90
5834;DHT22;2943;48.012;10.968;2023-07-28T11:24:44;23.90;99.90
5834;DHT22;2943;48.012;10.968;2023-07-28T11:27:10;24.00;99.90
5834;DHT22;2943;48.012;10.968;2023-07-28T11:29:37;24.10;99.90
5834;DHT22;2943;48.012;10.968;2023-07-28T11:32:04;24.20;99.90
5834;DHT22;2943;48.012;10.968;2023-07-28T11:34:33;24.10;99.90
5834;DHT22;2943;48.012;10.968;2023-07-28T11:37:00;24.10;99.90
5834;DHT22;2943;48.012;10.968;2023-07-28T11:39:29;24.10;99.90
5834;DHT22;2943;48.012;10.968;2023-07-28T11:41:58;24.20;99.90
5834;DHT22;2943;48.012;10.968;2023-07-28T11:44:24;24.20;99.90
5834;DHT22;2943;48.012;10.968;2023-07-28T11:46:51;24.30;99.90
5834;DHT22;2943;48.012;10.968;2023-07-28T11:49:21;24.40;99.90
5834;DHT22;2943;48.012;10.968;2023-07-28T11:51:48;24.30;99.90
5834;DHT22;2943;48.012;10.968;2023-07-28T11:54:16;24.30;99.90
5834;DHT22;2943;48.012;10.968;2023-07-28T11:56:45;24.40;99.90
5834;DHT22;2943;48.012;10.968;2023-07-28T11:59:16;24.50;99.90
5834;DHT22;2943;48.012;10.968;2023-07-28T12:01:55;24.60;99.90
5834;DHT22;2943;48.012;10.968;2023-07-28T12:04:23;24.70;99.90
5834;DHT22;2943;48.012;10.968;2023-07-28T12:07:00;24.90;99.90
5834;DHT22;2943;48.012;10.968;2023-07-28T12:09:26;24.90;99.90
5834;DHT22;2943;48.012;10.968;2023-07-28T12:11:53;25.00;99.90
5834;DHT22;2943;48.012;10.968;2023-07-28T12:14:31;25.00;99.90
5834;DHT22;2943;48.012;10.968;2023-07-28T12:16:57;25.00;99.90
5834;DHT22;2943;48.012;10.968;2023-07-28T12:19:25;24.90;99.90
5834;DHT22;2943;48.012;10.968;2023-07-28T12:21:52;24.80;99.90
5834;DHT22;2943;48.012;10.968;2023-07-28T12:24:18;24.70;99.90
5834;DHT22;2943;48.012;10.968;2023-07-28T12:26:45;24.40;99.90
5834;DHT22;2943;48.012;10.968;2023-07-28T12:29:13;24.30;99.90
5834;DHT22;2943;48.012;10.968;2023-07-28T12:31:41;24.20;99.90
5834;DHT22;2943;48.012;10.968;2023-07-28T12:34:07;24.10;99.90
5834;DHT22;2943;48.012;10.968;2023-07-28T12:36:34;24.00;99.90
5834;DHT22;2943;48.012;10.968;2023-07-28T12:39:00;23.90;99.90
5834;DHT22;2943;48.012;10.968;2023-07-28T12:41:28;23.80;99.90
5834;DHT22;2943;48.012;10.968;2023-07-28T12:43:55;23.80;99.90
5834;DHT22;2943;48.012;10.968;2023-07-28T12:46:21;23.80;99.90
5834;DHT22;2943;48.012;10.968;2023-07-28T12:48:50;23.80;99.90
5834;DHT22;2943;48.012;10.968;2023-07-28T12:51:16;23.80;99.90
5834;DHT22;2943;48.012;10.968;2023-07-28T12:53:43;23.80;99.90
5834;DHT22;2943;48.012;10.968;2023-07-28T12:56:09;23.70;99.90
5834;DHT22;2943;48.012;10.968;2023-07-28T12:58:36;23.70;99.90
5834;DHT22;2943;48.012;10.968;2023-07-28T13:01:03;23.70;99.90
5834;DHT22;2943;48.012;10.968;2023-07-28T13:03:29;23.60;99.90
5834;DHT22;2943;48.012;10.968;2023-07-28T13:05:58;23.40;99.90
5834;DHT22;2943;48.012;10.968;2023-07-28T13:08:24;23.40;99.90
5834;DHT22;2943;48.012;10.968;2023-07-28T13:10:51;23.30;99.90
5834;DHT22;2943;48.012;10.968;2023-07-28T13:13:17;23.20;99.90
5834;DHT22;2943;48.012;10.968;2023-07-28T13:15:44;23.10;99.90
5834;DHT22;2943;48.012;10.968;2023-07-28T13:18:11;23.10;99.90
5834;DHT22;2943;48.012;10.968;2023-07-28T13:20:37;23.10;99.90
5834;DHT22;2943;48.012;10.968;2023-07-28T13:23:05;23.10;99.90
5834;DHT22;2943;48.012;10.968;2023-07-28T13:25:32;23.10;99.90
5834;DHT22;2943;48.012;10.968;2023-07-28T13:27:59;23.00;99.90
5834;DHT22;2943;48.012;10.968;2023-07-28T13:30:25;22.90;99.90
5834;DHT22;2943;48.012;10.968;2023-07-28T13:32:52;22.90;99.90
5834;DHT22;2943;48.012;10.968;2023-07-28T13:35:18;22.90;99.90
5834;DHT22;2943;48.012;10.968;2023-07-28T13:37:45;22.90;99.90
5834;DHT22;2943;48.012;10.968;2023-07-28T13:40:13;22.90;99.90
5834;DHT22;2943;48.012;10.968;2023-07-28T13:42:40;22.90;99.90
5834;DHT22;2943;48.012;10.968;2023-07-28T13:45:08;22.90;99.90
5834;DHT22;2943;48.012;10.968;2023-07-28T13:47:35;22.90;99.90
5834;DHT22;2943;48.012;10.968;2023-07-28T13:50:01;22.90;99.90
5834;DHT22;2943;48.012;10.968;2023-07-28T13:52:28;22.90;99.90
5834;DHT22;2943;48.012;10.968;2023-07-28T13:54:55;22.90;99.90
5834;DHT22;2943;48.012;10.968;2023-07-28T13:57:23;22.80;99.90
5834;DHT22;2943;48.012;10.968;2023-07-28T13:59:49;22.80;99.90
5834;DHT22;2943;48.012;10.968;2023-07-28T14:02:16;22.80;99.90
5834;DHT22;2943;48.012;10.968;2023-07-28T14:04:43;22.90;99.90
5834;DHT22;2943;48.012;10.968;2023-07-28T14:07:09;22.90;99.90
5834;DHT22;2943;48.012;10.968;2023-07-28T14:09:36;23.00;99.90
5834;DHT22;2943;48.012;10.968;2023-07-28T14:12:03;23.10;99.90
5834;DHT22;2943;48.012;10.968;2023-07-28T14:14:31;23.10;99.90
5834;DHT22;2943;48.012;10.968;2023-07-28T14:16:58;23.20;99.90
5834;DHT22;2943;48.012;10.968;2023-07-28T14:19:25;23.30;99.90
5834;DHT22;2943;48.012;10.968;2023-07-28T14:21:51;23.40;99.90
5834;DHT22;2943;48.012;10.968;2023-07-28T14:24:18;23.50;99.90
5834;DHT22;2943;48.012;10.968;2023-07-28T14:26:45;23.50;99.90
5834;DHT22;2943;48.012;10.968;2023-07-28T14:29:11;23.60;99.90
5834;DHT22;2943;48.012;10.968;2023-07-28T14:31:40;23.70;99.90
5834;DHT22;2943;48.012;10.968;2023-07-28T14:34:06;23.80;99.90
5834;DHT22;2943;48.012;10.968;2023-07-28T14:36:33;23.90;99.90
5834;DHT22;2943;48.012;10.968;2023-07-28T14:39:01;24.00;99.90
5834;DHT22;2943;48.012;10.968;2023-07-28T14:41:28;24.10;99.90
5834;DHT22;2943;48.012;10.968;2023-07-28T14:43:54;24.20;99.90
5834;DHT22;2943;48.012;10.968;2023-07-28T14:46:21;24.40;99.90
5834;DHT22;2943;48.012;10.968;2023-07-28T14:48:51;24.50;99.90
5834;DHT22;2943;48.012;10.968;2023-07-28T14:51:18;24.50;99.90
5834;DHT22;2943;48.012;10.968;2023-07-28T14:53:44;24.60;99.90
5834;DHT22;2943;48.012;10.968;2023-07-28T14:56:12;24.80;99.90
5834;DHT22;2943;48.012;10.968;2023-07-28T14:58:39;24.90;99.90
5834;DHT22;2943;48.012;10.968;2023-07-28T15:01:06;25.10;99.90
5834;DHT22;2943;48.012;10.968;2023-07-28T15:03:33;25.30;99.90
5834;DHT22;2943;48.012;10.968;2023-07-28T15:06:01;25.50;99.90
5834;DHT22;2943;48.012;10.968;2023-07-28T15:08:28;25.70;99.90
5834;DHT22;2943;48.012;10.968;2023-07-28T15:10:55;25.90;99.90
5834;DHT22;2943;48.012;10.968;2023-07-28T15:13:22;26.10;99.90
5834;DHT22;2943;48.012;10.968;2023-07-28T15:15:48;26.10;99.90
5834;DHT22;2943;48.012;10.968;2023-07-28T15:18:15;26.00;99.90
5834;DHT22;2943;48.012;10.968;2023-07-28T15:20:42;25.70;99.90
5834;DHT22;2943;48.012;10.968;2023-07-28T15:23:10;25.60;99.90
5834;DHT22;2943;48.012;10.968;2023-07-28T15:25:37;25.30;99.90
5834;DHT22;2943;48.012;10.968;2023-07-28T15:28:08;25.20;99.90
5834;DHT22;2943;48.012;10.968;2023-07-28T15:30:35;25.20;99.90
5834;DHT22;2943;48.012;10.968;2023-07-28T15:33:01;25.20;99.90
5834;DHT22;2943;48.012;10.968;2023-07-28T15:35:28;25.20;99.90
5834;DHT22;2943;48.012;10.968;2023-07-28T15:37:54;25.20;99.90
5834;DHT22;2943;48.012;10.968;2023-07-28T15:40:22;25.30;99.90
5834;DHT22;2943;48.012;10.968;2023-07-28T15:42:49;25.30;99.90
5834;DHT22;2943;48.012;10.968;2023-07-28T15:45:16;25.50;99.90